sensor_id;sensor_type;location;lat;lon;timestamp;P1;durP1;ratioP1;P2;durP2;ratioP2
2388;SDS011;1205;47.984;7.668;2023-03-01T00:01:58;20.70;;;13.63;;
2388;SDS011;1205;47.984;7.668;2023-03-01T00:04:24;24.97;;;14.20;;
2388;SDS011;1205;47.984;7.668;2023-03-01T00:06:49;33.00;;;15.00;;
2388;SDS011;1205;47.984;7.668;2023-03-01T00:09:16;27.17;;;13.43;;
2388;SDS011;1205;47.984;7.668;2023-03-01T00:11:42;41.73;;;16.73;;
2388;SDS011;1205;47.984;7.668;2023-03-01T00:14:08;35.10;;;15.13;;
2388;SDS011;1205;47.984;7.668;2023-03-01T00:16:34;42.03;;;15.67;;
2388;SDS011;1205;47.984;7.668;2023-03-01T00:19:03;36.23;;;14.97;;
2388;SDS011;1205;47.984;7.668;2023-03-01T00:21:29;49.33;;;15.90;;
2388;SDS011;1205;47.984;7.668;2023-03-01T00:23:55;31.63;;;16.40;;
2388;SDS011;1205;47.984;7.668;2023-03-01T00:26:21;35.70;;;15.70;;
2388;SDS011;1205;47.984;7.668;2023-03-01T00:28:48;40.40;;;16.70;;
2388;SDS011;1205;47.984;7.668;2023-03-01T00:31:15;44.27;;;16.13;;
2388;SDS011;1205;47.984;7.668;2023-03-01T00:33:43;25.53;;;14.27;;
2388;SDS011;1205;47.984;7.668;2023-03-01T00:36:09;26.40;;;14.27;;
2388;SDS011;1205;47.984;7.668;2023-03-01T00:38:37;26.03;;;12.77;;
2388;SDS011;1205;47.984;7.668;2023-03-01T00:41:08;27.03;;;13.80;;
2388;SDS011;1205;47.984;7.668;2023-03-01T00:43:36;32.20;;;16.37;;
2388;SDS011;1205;47.984;7.668;2023-03-01T00:46:02;38.20;;;16.37;;
2388;SDS011;1205;47.984;7.668;2023-03-01T00:48:33;36.40;;;15.80;;
2388;SDS011;1205;47.984;7.668;2023-03-01T00:51:06;32.50;;;14.97;;
2388;SDS011;1205;47.984;7.668;2023-03-01T00:53:51;21.10;;;12.40;;
2388;SDS011;1205;47.984;7.668;2023-03-01T00:56:18;21.83;;;13.03;;
2388;SDS011;1205;47.984;7.668;2023-03-01T00:58:44;32.80;;;14.23;;
2388;SDS011;1205;47.984;7.668;2023-03-01T01:01:10;39.13;;;14.07;;
2388;SDS011;1205;47.984;7.668;2023-03-01T01:03:48;23.97;;;12.70;;
2388;SDS011;1205;47.984;7.668;2023-03-01T01:06:14;21.43;;;12.40;;
2388;SDS011;1205;47.984;7.668;2023-03-01T01:08:41;23.00;;;12.90;;
2388;SDS011;1205;47.984;7.668;2023-03-01T01:11:08;26.70;;;12.97;;
2388;SDS011;1205;47.984;7.668;2023-03-01T01:13:34;24.93;;;12.93;;
2388;SDS011;1205;47.984;7.668;2023-03-01T01:16:01;23.30;;;13.40;;
2388;SDS011;1205;47.984;7.668;2023-03-01T01:18:27;22.70;;;13.50;;
2388;SDS011;1205;47.984;7.668;2023-03-01T01:20:52;24.07;;;13.70;;
2388;SDS011;1205;47.984;7.668;2023-03-01T01:23:18;19.90;;;12.10;;
2388;SDS011;1205;47.984;7.668;2023-03-01T01:25:43;25.70;;;14.23;;
2388;SDS011;1205;47.984;7.668;2023-03-01T01:28:09;23.70;;;13.77;;
2388;SDS011;1205;47.984;7.668;2023-03-01T01:30:34;23.30;;;13.47;;
2388;SDS011;1205;47.984;7.668;2023-03-01T01:33:00;38.40;;;15.67;;
2388;SDS011;1205;47.984;7.668;2023-03-01T01:35:25;37.53;;;16.30;;
2388;SDS011;1205;47.984;7.668;2023-03-01T01:37:52;26.37;;;14.17;;
2388;SDS011;1205;47.984;7.668;2023-03-01T01:40:17;21.40;;;12.57;;
2388;SDS011;1205;47.984;7.668;2023-03-01T01:42:43;18.33;;;11.57;;
2388;SDS011;1205;47.984;7.668;2023-03-01T01:45:24;19.07;;;11.53;;
2388;SDS011;1205;47.984;7.668;2023-03-01T01:48:03;21.33;;;12.57;;
2388;SDS011;1205;47.984;7.668;2023-03-01T01:50:32;20.67;;;11.93;;
2388;SDS011;1205;47.984;7.668;2023-03-01T01:53:02;21.20;;;12.00;;
2388;SDS011;1205;47.984;7.668;2023-03-01T01:55:31;19.60;;;11.97;;
2388;SDS011;1205;47.984;7.668;2023-03-01T01:57:58;20.60;;;11.83;;
2388;SDS011;1205;47.984;7.668;2023-03-01T02:00:28;18.83;;;11.97;;
2388;SDS011;1205;47.984;7.668;2023-03-01T02:02:56;21.70;;;11.40;;
2388;SDS011;1205;47.984;7.668;2023-03-01T02:08:11;24.00;;;12.00;;
2388;SDS011;1205;47.984;7.668;2023-03-01T02:10:38;22.60;;;12.17;;
2388;SDS011;1205;47.984;7.668;2023-03-01T02:13:04;23.33;;;12.60;;
2388;SDS011;1205;47.984;7.668;2023-03-01T02:15:33;22.63;;;12.53;;
2388;SDS011;1205;47.984;7.668;2023-03-01T02:18:01;23.37;;;12.30;;
2388;SDS011;1205;47.984;7.668;2023-03-01T02:23:27;18.93;;;11.93;;
2388;SDS011;1205;47.984;7.668;2023-03-01T02:25:55;16.37;;;10.67;;
2388;SDS011;1205;47.984;7.668;2023-03-01T02:28:31;16.53;;;10.93;;
2388;SDS011;1205;47.984;7.668;2023-03-01T02:31:01;17.03;;;10.87;;
2388;SDS011;1205;47.984;7.668;2023-03-01T02:33:46;18.10;;;10.93;;
2388;SDS011;1205;47.984;7.668;2023-03-01T02:36:20;19.27;;;11.63;;
2388;SDS011;1205;47.984;7.668;2023-03-01T02:38:50;22.03;;;12.27;;
2388;SDS011;1205;47.984;7.668;2023-03-01T02:41:19;16.73;;;11.00;;
2388;SDS011;1205;47.984;7.668;2023-03-01T02:43:46;19.87;;;11.90;;
2388;SDS011;1205;47.984;7.668;2023-03-01T02:46:16;20.37;;;12.70;;
2388;SDS011;1205;47.984;7.668;2023-03-01T02:48:46;19.23;;;10.97;;
2388;SDS011;1205;47.984;7.668;2023-03-01T02:53:56;19.20;;;11.60;;
2388;SDS011;1205;47.984;7.668;2023-03-01T02:56:43;21.53;;;12.00;;
2388;SDS011;1205;47.984;7.668;2023-03-01T02:59:09;18.40;;;11.67;;
2388;SDS011;1205;47.984;7.668;2023-03-01T03:01:36;20.27;;;10.80;;
2388;SDS011;1205;47.984;7.668;2023-03-01T03:04:11;21.70;;;13.20;;
2388;SDS011;1205;47.984;7.668;2023-03-01T03:06:42;18.00;;;11.50;;
2388;SDS011;1205;47.984;7.668;2023-03-01T03:09:09;16.83;;;11.87;;
2388;SDS011;1205;47.984;7.668;2023-03-01T03:11:34;20.10;;;11.73;;
2388;SDS011;1205;47.984;7.668;2023-03-01T03:14:01;15.37;;;9.70;;
2388;SDS011;1205;47.984;7.668;2023-03-01T03:16:27;17.93;;;11.40;;
2388;SDS011;1205;47.984;7.668;2023-03-01T03:18:54;22.47;;;13.00;;
2388;SDS011;1205;47.984;7.668;2023-03-01T03:21:29;20.80;;;12.40;;
2388;SDS011;1205;47.984;7.668;2023-03-01T03:23:58;21.20;;;12.80;;
2388;SDS011;1205;47.984;7.668;2023-03-01T03:26:24;22.93;;;11.90;;
2388;SDS011;1205;47.984;7.668;2023-03-01T03:28:50;20.50;;;11.40;;
2388;SDS011;1205;47.984;7.668;2023-03-01T03:31:15;21.60;;;11.87;;
2388;SDS011;1205;47.984;7.668;2023-03-01T03:33:41;20.03;;;11.93;;
2388;SDS011;1205;47.984;7.668;2023-03-01T03:36:07;19.63;;;12.03;;
2388;SDS011;1205;47.984;7.668;2023-03-01T03:38:38;18.10;;;11.73;;
2388;SDS011;1205;47.984;7.668;2023-03-01T03:41:05;27.63;;;13.40;;
2388;SDS011;1205;47.984;7.668;2023-03-01T03:43:33;17.43;;;12.43;;
2388;SDS011;1205;47.984;7.668;2023-03-01T03:46:01;20.87;;;11.30;;
2388;SDS011;1205;47.984;7.668;2023-03-01T03:48:30;19.60;;;11.47;;
2388;SDS011;1205;47.984;7.668;2023-03-01T03:51:00;19.40;;;11.80;;
2388;SDS011;1205;47.984;7.668;2023-03-01T03:53:26;18.90;;;10.73;;
2388;SDS011;1205;47.984;7.668;2023-03-01T03:55:52;16.67;;;11.47;;
2388;SDS011;1205;47.984;7.668;2023-03-01T03:58:19;18.00;;;10.60;;
2388;SDS011;1205;47.984;7.668;2023-03-01T04:00:47;21.07;;;12.00;;
2388;SDS011;1205;47.984;7.668;2023-03-01T04:03:16;19.73;;;11.90;;
2388;SDS011;1205;47.984;7.668;2023-03-01T04:05:43;17.17;;;11.57;;
2388;SDS011;1205;47.984;7.668;2023-03-01T04:08:10;29.97;;;12.57;;
2388;SDS011;1205;47.984;7.668;2023-03-01T04:10:37;19.57;;;12.97;;
2388;SDS011;1205;47.984;7.668;2023-03-01T04:13:09;21.70;;;12.97;;
2388;SDS011;1205;47.984;7.668;2023-03-01T04:15:37;25.07;;;14.57;;
2388;SDS011;1205;47.984;7.668;2023-03-01T04:18:03;18.27;;;11.60;;
2388;SDS011;1205;47.984;7.668;2023-03-01T04:20:30;20.30;;;12.30;;
2388;SDS011;1205;47.984;7.668;2023-03-01T04:23:00;19.70;;;13.10;;
2388;SDS011;1205;47.984;7.668;2023-03-01T04:25:35;23.30;;;12.47;;
2388;SDS011;1205;47.984;7.668;2023-03-01T04:28:11;22.97;;;13.50;;
2388;SDS011;1205;47.984;7.668;2023-03-01T04:30:37;22.90;;;12.33;;
2388;SDS011;1205;47.984;7.668;2023-03-01T04:33:07;22.90;;;12.90;;
2388;SDS011;1205;47.984;7.668;2023-03-01T04:35:33;18.30;;;12.47;;
2388;SDS011;1205;47.984;7.668;2023-03-01T04:38:00;21.30;;;12.33;;
2388;SDS011;1205;47.984;7.668;2023-03-01T04:40:26;23.10;;;12.40;;
2388;SDS011;1205;47.984;7.668;2023-03-01T04:42:51;21.70;;;12.27;;
2388;SDS011;1205;47.984;7.668;2023-03-01T04:45:17;19.40;;;12.90;;
2388;SDS011;1205;47.984;7.668;2023-03-01T04:47:43;18.80;;;12.53;;
2388;SDS011;1205;47.984;7.668;2023-03-01T04:50:11;20.80;;;13.47;;
2388;SDS011;1205;47.984;7.668;2023-03-01T04:52:39;20.93;;;13.27;;
2388;SDS011;1205;47.984;7.668;2023-03-01T04:55:05;23.73;;;13.60;;
2388;SDS011;1205;47.984;7.668;2023-03-01T04:57:32;20.27;;;12.70;;
2388;SDS011;1205;47.984;7.668;2023-03-01T04:59:58;19.20;;;12.43;;
2388;SDS011;1205;47.984;7.668;2023-03-01T05:02:23;21.47;;;13.67;;
2388;SDS011;1205;47.984;7.668;2023-03-01T05:04:49;19.73;;;13.17;;
2388;SDS011;1205;47.984;7.668;2023-03-01T05:07:15;19.33;;;12.27;;
2388;SDS011;1205;47.984;7.668;2023-03-01T05:09:45;19.43;;;12.27;;
2388;SDS011;1205;47.984;7.668;2023-03-01T05:12:11;20.87;;;13.67;;
2388;SDS011;1205;47.984;7.668;2023-03-01T05:14:37;19.67;;;13.17;;
2388;SDS011;1205;47.984;7.668;2023-03-01T05:17:04;22.30;;;13.60;;
2388;SDS011;1205;47.984;7.668;2023-03-01T05:19:30;19.80;;;12.87;;
2388;SDS011;1205;47.984;7.668;2023-03-01T05:21:56;29.60;;;14.37;;
2388;SDS011;1205;47.984;7.668;2023-03-01T05:24:32;18.50;;;12.23;;
2388;SDS011;1205;47.984;7.668;2023-03-01T05:26:59;21.50;;;13.53;;
2388;SDS011;1205;47.984;7.668;2023-03-01T05:29:26;23.57;;;14.50;;
2388;SDS011;1205;47.984;7.668;2023-03-01T05:31:54;25.20;;;15.30;;
2388;SDS011;1205;47.984;7.668;2023-03-01T05:34:23;20.90;;;13.07;;
2388;SDS011;1205;47.984;7.668;2023-03-01T05:36:50;32.83;;;17.20;;
2388;SDS011;1205;47.984;7.668;2023-03-01T05:39:18;34.70;;;15.80;;
2388;SDS011;1205;47.984;7.668;2023-03-01T05:41:46;19.70;;;12.20;;
2388;SDS011;1205;47.984;7.668;2023-03-01T05:44:12;25.23;;;14.57;;
2388;SDS011;1205;47.984;7.668;2023-03-01T05:46:38;27.73;;;14.80;;
2388;SDS011;1205;47.984;7.668;2023-03-01T05:49:03;22.53;;;14.30;;
2388;SDS011;1205;47.984;7.668;2023-03-01T05:51:30;24.70;;;14.60;;
2388;SDS011;1205;47.984;7.668;2023-03-01T05:53:55;27.73;;;14.30;;
2388;SDS011;1205;47.984;7.668;2023-03-01T05:56:21;20.60;;;14.20;;
2388;SDS011;1205;47.984;7.668;2023-03-01T05:58:50;26.40;;;15.63;;
2388;SDS011;1205;47.984;7.668;2023-03-01T06:01:16;26.53;;;15.20;;
2388;SDS011;1205;47.984;7.668;2023-03-01T06:03:41;23.80;;;14.67;;
2388;SDS011;1205;47.984;7.668;2023-03-01T06:06:07;24.10;;;14.60;;
2388;SDS011;1205;47.984;7.668;2023-03-01T06:08:33;21.30;;;14.60;;
2388;SDS011;1205;47.984;7.668;2023-03-01T06:10:58;33.50;;;18.17;;
2388;SDS011;1205;47.984;7.668;2023-03-01T06:13:24;30.17;;;18.27;;
2388;SDS011;1205;47.984;7.668;2023-03-01T06:15:50;25.87;;;15.70;;
2388;SDS011;1205;47.984;7.668;2023-03-01T06:18:15;25.40;;;14.43;;
2388;SDS011;1205;47.984;7.668;2023-03-01T06:20:41;22.60;;;13.60;;
2388;SDS011;1205;47.984;7.668;2023-03-01T06:23:07;32.80;;;15.20;;
2388;SDS011;1205;47.984;7.668;2023-03-01T06:25:32;25.37;;;14.70;;
2388;SDS011;1205;47.984;7.668;2023-03-01T06:27:58;22.30;;;14.00;;
2388;SDS011;1205;47.984;7.668;2023-03-01T06:30:24;23.90;;;14.57;;
2388;SDS011;1205;47.984;7.668;2023-03-01T06:32:51;24.60;;;14.23;;
2388;SDS011;1205;47.984;7.668;2023-03-01T06:35:17;25.23;;;14.40;;
2388;SDS011;1205;47.984;7.668;2023-03-01T06:37:44;20.83;;;13.83;;
2388;SDS011;1205;47.984;7.668;2023-03-01T06:40:11;21.60;;;13.80;;
2388;SDS011;1205;47.984;7.668;2023-03-01T06:42:40;27.10;;;16.80;;
2388;SDS011;1205;47.984;7.668;2023-03-01T06:45:07;24.70;;;15.10;;
2388;SDS011;1205;47.984;7.668;2023-03-01T06:47:33;25.03;;;14.53;;
2388;SDS011;1205;47.984;7.668;2023-03-01T06:49:59;34.40;;;15.17;;
2388;SDS011;1205;47.984;7.668;2023-03-01T06:52:25;29.07;;;17.40;;
2388;SDS011;1205;47.984;7.668;2023-03-01T06:54:51;24.13;;;14.43;;
2388;SDS011;1205;47.984;7.668;2023-03-01T06:57:17;23.60;;;14.43;;
2388;SDS011;1205;47.984;7.668;2023-03-01T06:59:42;21.40;;;13.90;;
2388;SDS011;1205;47.984;7.668;2023-03-01T07:02:11;21.23;;;13.17;;
2388;SDS011;1205;47.984;7.668;2023-03-01T07:04:37;22.00;;;13.17;;
2388;SDS011;1205;47.984;7.668;2023-03-01T07:07:03;20.10;;;13.53;;
2388;SDS011;1205;47.984;7.668;2023-03-01T07:09:28;18.27;;;12.27;;
2388;SDS011;1205;47.984;7.668;2023-03-01T07:11:54;25.53;;;13.57;;
2388;SDS011;1205;47.984;7.668;2023-03-01T07:14:21;20.30;;;13.63;;
2388;SDS011;1205;47.984;7.668;2023-03-01T07:16:49;24.90;;;14.20;;
2388;SDS011;1205;47.984;7.668;2023-03-01T07:19:15;18.47;;;12.20;;
2388;SDS011;1205;47.984;7.668;2023-03-01T07:21:40;22.53;;;13.40;;
2388;SDS011;1205;47.984;7.668;2023-03-01T07:24:06;22.80;;;13.60;;
2388;SDS011;1205;47.984;7.668;2023-03-01T07:26:32;22.70;;;12.43;;
2388;SDS011;1205;47.984;7.668;2023-03-01T07:28:58;20.90;;;13.00;;
2388;SDS011;1205;47.984;7.668;2023-03-01T07:31:24;20.07;;;13.00;;
2388;SDS011;1205;47.984;7.668;2023-03-01T07:33:52;19.20;;;12.27;;
2388;SDS011;1205;47.984;7.668;2023-03-01T07:36:18;21.50;;;13.90;;
2388;SDS011;1205;47.984;7.668;2023-03-01T07:38:44;20.00;;;12.90;;
2388;SDS011;1205;47.984;7.668;2023-03-01T07:41:09;19.47;;;13.07;;
2388;SDS011;1205;47.984;7.668;2023-03-01T07:43:35;21.80;;;13.97;;
2388;SDS011;1205;47.984;7.668;2023-03-01T07:46:01;17.27;;;12.03;;
2388;SDS011;1205;47.984;7.668;2023-03-01T07:48:28;18.30;;;12.50;;
2388;SDS011;1205;47.984;7.668;2023-03-01T07:50:54;25.47;;;13.57;;
2388;SDS011;1205;47.984;7.668;2023-03-01T07:53:22;20.90;;;13.50;;
2388;SDS011;1205;47.984;7.668;2023-03-01T07:55:48;22.83;;;14.10;;
2388;SDS011;1205;47.984;7.668;2023-03-01T07:58:13;23.80;;;13.30;;
2388;SDS011;1205;47.984;7.668;2023-03-01T08:00:39;21.73;;;13.70;;
2388;SDS011;1205;47.984;7.668;2023-03-01T08:03:04;23.27;;;15.27;;
2388;SDS011;1205;47.984;7.668;2023-03-01T08:05:30;22.10;;;14.10;;
2388;SDS011;1205;47.984;7.668;2023-03-01T08:07:55;24.20;;;14.57;;
2388;SDS011;1205;47.984;7.668;2023-03-01T08:10:21;23.10;;;13.80;;
2388;SDS011;1205;47.984;7.668;2023-03-01T08:12:47;25.47;;;14.83;;
2388;SDS011;1205;47.984;7.668;2023-03-01T08:15:12;30.63;;;18.30;;
2388;SDS011;1205;47.984;7.668;2023-03-01T08:17:38;28.10;;;14.83;;
2388;SDS011;1205;47.984;7.668;2023-03-01T08:20:03;26.27;;;15.27;;
2388;SDS011;1205;47.984;7.668;2023-03-01T08:22:31;21.83;;;13.83;;
2388;SDS011;1205;47.984;7.668;2023-03-01T08:24:57;25.53;;;15.17;;
2388;SDS011;1205;47.984;7.668;2023-03-01T08:27:23;21.73;;;13.33;;
2388;SDS011;1205;47.984;7.668;2023-03-01T08:29:48;20.63;;;13.57;;
2388;SDS011;1205;47.984;7.668;2023-03-01T08:32:14;24.77;;;13.30;;
2388;SDS011;1205;47.984;7.668;2023-03-01T08:34:39;26.10;;;14.33;;
2388;SDS011;1205;47.984;7.668;2023-03-01T08:37:05;21.47;;;13.07;;
2388;SDS011;1205;47.984;7.668;2023-03-01T08:39:30;19.23;;;12.90;;
2388;SDS011;1205;47.984;7.668;2023-03-01T08:41:56;24.50;;;13.30;;
2388;SDS011;1205;47.984;7.668;2023-03-01T08:44:22;23.20;;;14.40;;
2388;SDS011;1205;47.984;7.668;2023-03-01T08:46:47;20.13;;;13.90;;
2388;SDS011;1205;47.984;7.668;2023-03-01T08:49:15;19.40;;;13.93;;
2388;SDS011;1205;47.984;7.668;2023-03-01T08:51:43;23.73;;;13.40;;
2388;SDS011;1205;47.984;7.668;2023-03-01T08:54:10;21.97;;;13.70;;
2388;SDS011;1205;47.984;7.668;2023-03-01T08:56:37;22.63;;;13.53;;
2388;SDS011;1205;47.984;7.668;2023-03-01T08:59:03;23.47;;;14.47;;
2388;SDS011;1205;47.984;7.668;2023-03-01T09:01:29;24.30;;;15.00;;
2388;SDS011;1205;47.984;7.668;2023-03-01T09:03:54;23.93;;;14.43;;
2388;SDS011;1205;47.984;7.668;2023-03-01T09:06:20;25.77;;;15.60;;
2388;SDS011;1205;47.984;7.668;2023-03-01T09:08:48;25.47;;;16.13;;
2388;SDS011;1205;47.984;7.668;2023-03-01T09:11:15;19.43;;;15.70;;
2388;SDS011;1205;47.984;7.668;2023-03-01T09:13:43;22.67;;;14.27;;
2388;SDS011;1205;47.984;7.668;2023-03-01T09:16:10;20.70;;;12.53;;
2388;SDS011;1205;47.984;7.668;2023-03-01T09:18:38;19.50;;;13.07;;
2388;SDS011;1205;47.984;7.668;2023-03-01T09:21:07;22.03;;;13.27;;
2388;SDS011;1205;47.984;7.668;2023-03-01T09:23:35;20.40;;;13.60;;
2388;SDS011;1205;47.984;7.668;2023-03-01T09:26:03;21.17;;;14.37;;
2388;SDS011;1205;47.984;7.668;2023-03-01T09:28:29;22.10;;;13.37;;
2388;SDS011;1205;47.984;7.668;2023-03-01T09:30:58;22.63;;;14.20;;
2388;SDS011;1205;47.984;7.668;2023-03-01T09:33:25;22.20;;;14.47;;
2388;SDS011;1205;47.984;7.668;2023-03-01T09:35:55;22.80;;;13.73;;
2388;SDS011;1205;47.984;7.668;2023-03-01T09:38:25;20.27;;;13.83;;
2388;SDS011;1205;47.984;7.668;2023-03-01T09:40:51;22.20;;;13.20;;
2388;SDS011;1205;47.984;7.668;2023-03-01T09:43:41;23.40;;;14.40;;
2388;SDS011;1205;47.984;7.668;2023-03-01T09:46:13;19.30;;;12.47;;
2388;SDS011;1205;47.984;7.668;2023-03-01T09:48:42;23.67;;;14.87;;
2388;SDS011;1205;47.984;7.668;2023-03-01T09:51:23;24.03;;;12.97;;
2388;SDS011;1205;47.984;7.668;2023-03-01T09:54:00;21.07;;;13.70;;
2388;SDS011;1205;47.984;7.668;2023-03-01T09:56:37;28.13;;;15.57;;
2388;SDS011;1205;47.984;7.668;2023-03-01T10:01:46;22.43;;;14.97;;
2388;SDS011;1205;47.984;7.668;2023-03-01T10:09:39;22.33;;;14.17;;
2388;SDS011;1205;47.984;7.668;2023-03-01T10:12:14;25.17;;;15.63;;
2388;SDS011;1205;47.984;7.668;2023-03-01T10:14:49;20.83;;;13.60;;
2388;SDS011;1205;47.984;7.668;2023-03-01T10:20:21;18.80;;;10.80;;
2388;SDS011;1205;47.984;7.668;2023-03-01T10:22:47;23.63;;;15.00;;
2388;SDS011;1205;47.984;7.668;2023-03-01T10:25:21;23.97;;;15.50;;
2388;SDS011;1205;47.984;7.668;2023-03-01T10:30:42;26.13;;;14.60;;
2388;SDS011;1205;47.984;7.668;2023-03-01T10:33:16;23.43;;;13.90;;
2388;SDS011;1205;47.984;7.668;2023-03-01T10:35:47;35.33;;;15.17;;
2388;SDS011;1205;47.984;7.668;2023-03-01T10:38:13;23.63;;;15.17;;
2388;SDS011;1205;47.984;7.668;2023-03-01T10:43:17;22.20;;;14.33;;
2388;SDS011;1205;47.984;7.668;2023-03-01T10:45:43;23.73;;;15.23;;
2388;SDS011;1205;47.984;7.668;2023-03-01T10:51:04;25.93;;;15.80;;
2388;SDS011;1205;47.984;7.668;2023-03-01T10:53:35;21.43;;;13.17;;
2388;SDS011;1205;47.984;7.668;2023-03-01T10:56:09;24.70;;;14.07;;
2388;SDS011;1205;47.984;7.668;2023-03-01T10:58:40;18.67;;;13.40;;
2388;SDS011;1205;47.984;7.668;2023-03-01T11:03:52;21.43;;;12.77;;
2388;SDS011;1205;47.984;7.668;2023-03-01T11:06:28;19.00;;;12.73;;
2388;SDS011;1205;47.984;7.668;2023-03-01T11:08:53;19.73;;;12.90;;
2388;SDS011;1205;47.984;7.668;2023-03-01T11:11:29;26.03;;;12.90;;
2388;SDS011;1205;47.984;7.668;2023-03-01T11:13:57;25.03;;;13.53;;
2388;SDS011;1205;47.984;7.668;2023-03-01T11:16:24;21.10;;;13.53;;
2388;SDS011;1205;47.984;7.668;2023-03-01T11:19:00;24.57;;;12.27;;
2388;SDS011;1205;47.984;7.668;2023-03-01T11:21:29;18.63;;;13.53;;
2388;SDS011;1205;47.984;7.668;2023-03-01T11:23:59;23.37;;;12.57;;
2388;SDS011;1205;47.984;7.668;2023-03-01T11:26:27;21.67;;;13.60;;
2388;SDS011;1205;47.984;7.668;2023-03-01T11:28:55;18.17;;;12.53;;
2388;SDS011;1205;47.984;7.668;2023-03-01T11:31:24;19.40;;;13.10;;
2388;SDS011;1205;47.984;7.668;2023-03-01T11:33:54;19.37;;;12.87;;
2388;SDS011;1205;47.984;7.668;2023-03-01T11:38:53;22.27;;;13.97;;
2388;SDS011;1205;47.984;7.668;2023-03-01T11:41:20;25.80;;;13.83;;
2388;SDS011;1205;47.984;7.668;2023-03-01T11:54:33;21.33;;;13.60;;
2388;SDS011;1205;47.984;7.668;2023-03-01T12:08:13;24.83;;;13.73;;
2388;SDS011;1205;47.984;7.668;2023-03-01T12:10:58;18.13;;;13.00;;
2388;SDS011;1205;47.984;7.668;2023-03-01T12:16:13;26.10;;;13.87;;
2388;SDS011;1205;47.984;7.668;2023-03-01T12:21:42;20.67;;;12.20;;
2388;SDS011;1205;47.984;7.668;2023-03-01T12:24:33;21.23;;;12.60;;
2388;SDS011;1205;47.984;7.668;2023-03-01T12:51:47;20.03;;;12.70;;
2388;SDS011;1205;47.984;7.668;2023-03-01T12:54:25;19.40;;;12.93;;
2388;SDS011;1205;47.984;7.668;2023-03-01T12:57:18;15.57;;;12.03;;
2388;SDS011;1205;47.984;7.668;2023-03-01T13:00:26;20.57;;;14.40;;
2388;SDS011;1205;47.984;7.668;2023-03-01T13:08:18;19.87;;;13.93;;
2388;SDS011;1205;47.984;7.668;2023-03-01T13:13:29;21.93;;;13.17;;
2388;SDS011;1205;47.984;7.668;2023-03-01T13:15:55;19.30;;;12.70;;
2388;SDS011;1205;47.984;7.668;2023-03-01T13:20:49;18.37;;;13.40;;
2388;SDS011;1205;47.984;7.668;2023-03-01T13:30:59;19.30;;;13.97;;
2388;SDS011;1205;47.984;7.668;2023-03-01T13:35:56;20.00;;;12.97;;
2388;SDS011;1205;47.984;7.668;2023-03-01T13:41:11;21.80;;;14.17;;
2388;SDS011;1205;47.984;7.668;2023-03-01T13:43:39;21.73;;;14.37;;
2388;SDS011;1205;47.984;7.668;2023-03-01T13:48:44;20.90;;;13.40;;
2388;SDS011;1205;47.984;7.668;2023-03-01T13:51:12;22.93;;;13.80;;
2388;SDS011;1205;47.984;7.668;2023-03-01T13:53:40;22.77;;;15.23;;
2388;SDS011;1205;47.984;7.668;2023-03-01T13:56:10;19.33;;;14.00;;
2388;SDS011;1205;47.984;7.668;2023-03-01T13:59:01;21.37;;;14.90;;
2388;SDS011;1205;47.984;7.668;2023-03-01T14:01:34;21.60;;;14.27;;
2388;SDS011;1205;47.984;7.668;2023-03-01T14:04:02;21.00;;;14.17;;
2388;SDS011;1205;47.984;7.668;2023-03-01T14:06:32;22.20;;;15.57;;
2388;SDS011;1205;47.984;7.668;2023-03-01T14:09:10;20.20;;;14.23;;
2388;SDS011;1205;47.984;7.668;2023-03-01T14:14:40;19.00;;;13.40;;
2388;SDS011;1205;47.984;7.668;2023-03-01T14:19:41;22.10;;;15.60;;
2388;SDS011;1205;47.984;7.668;2023-03-01T14:24:57;21.27;;;14.17;;
2388;SDS011;1205;47.984;7.668;2023-03-01T14:27:25;22.90;;;16.83;;
2388;SDS011;1205;47.984;7.668;2023-03-01T14:29:56;21.90;;;15.50;;
2388;SDS011;1205;47.984;7.668;2023-03-01T14:34:53;17.80;;;13.93;;
2388;SDS011;1205;47.984;7.668;2023-03-01T14:37:21;26.70;;;16.53;;
2388;SDS011;1205;47.984;7.668;2023-03-01T14:39:50;22.80;;;15.83;;
2388;SDS011;1205;47.984;7.668;2023-03-01T14:42:17;22.47;;;15.33;;
2388;SDS011;1205;47.984;7.668;2023-03-01T14:44:47;21.80;;;15.80;;
2388;SDS011;1205;47.984;7.668;2023-03-01T14:47:25;28.03;;;17.90;;
2388;SDS011;1205;47.984;7.668;2023-03-01T14:50:00;23.00;;;15.50;;
2388;SDS011;1205;47.984;7.668;2023-03-01T14:52:31;26.17;;;17.70;;
2388;SDS011;1205;47.984;7.668;2023-03-01T14:55:04;25.87;;;16.80;;
2388;SDS011;1205;47.984;7.668;2023-03-01T14:57:32;26.73;;;16.77;;
2388;SDS011;1205;47.984;7.668;2023-03-01T14:59:58;23.07;;;14.97;;
2388;SDS011;1205;47.984;7.668;2023-03-01T15:02:28;24.07;;;15.60;;
2388;SDS011;1205;47.984;7.668;2023-03-01T15:04:55;26.30;;;16.67;;
2388;SDS011;1205;47.984;7.668;2023-03-01T15:07:25;20.60;;;14.80;;
2388;SDS011;1205;47.984;7.668;2023-03-01T15:09:54;25.03;;;16.60;;
2388;SDS011;1205;47.984;7.668;2023-03-01T15:15:18;24.50;;;16.60;;
2388;SDS011;1205;47.984;7.668;2023-03-01T15:17:55;26.73;;;15.97;;
2388;SDS011;1205;47.984;7.668;2023-03-01T15:20:24;23.20;;;15.23;;
2388;SDS011;1205;47.984;7.668;2023-03-01T15:22:52;26.00;;;15.90;;
2388;SDS011;1205;47.984;7.668;2023-03-01T15:25:23;23.73;;;16.63;;
2388;SDS011;1205;47.984;7.668;2023-03-01T15:27:51;26.43;;;16.07;;
2388;SDS011;1205;47.984;7.668;2023-03-01T15:30:21;25.00;;;16.93;;
2388;SDS011;1205;47.984;7.668;2023-03-01T15:33:15;26.50;;;17.33;;
2388;SDS011;1205;47.984;7.668;2023-03-01T15:35:47;27.87;;;17.67;;
2388;SDS011;1205;47.984;7.668;2023-03-01T15:43:55;25.73;;;16.27;;
2388;SDS011;1205;47.984;7.668;2023-03-01T15:46:25;23.00;;;15.80;;
2388;SDS011;1205;47.984;7.668;2023-03-01T15:48:57;26.10;;;16.60;;
2388;SDS011;1205;47.984;7.668;2023-03-01T15:51:29;23.90;;;15.90;;
2388;SDS011;1205;47.984;7.668;2023-03-01T15:54:01;28.97;;;16.17;;
2388;SDS011;1205;47.984;7.668;2023-03-01T15:56:47;25.67;;;16.37;;
2388;SDS011;1205;47.984;7.668;2023-03-01T15:59:12;22.83;;;15.70;;
2388;SDS011;1205;47.984;7.668;2023-03-01T16:01:39;24.93;;;16.03;;
2388;SDS011;1205;47.984;7.668;2023-03-01T16:04:09;29.07;;;17.37;;
2388;SDS011;1205;47.984;7.668;2023-03-01T16:06:38;28.37;;;17.80;;
2388;SDS011;1205;47.984;7.668;2023-03-01T16:09:04;26.70;;;16.63;;
2388;SDS011;1205;47.984;7.668;2023-03-01T16:11:30;25.13;;;16.93;;
2388;SDS011;1205;47.984;7.668;2023-03-01T16:13:57;24.00;;;16.40;;
2388;SDS011;1205;47.984;7.668;2023-03-01T16:16:23;24.37;;;17.17;;
2388;SDS011;1205;47.984;7.668;2023-03-01T16:18:49;24.07;;;16.23;;
2388;SDS011;1205;47.984;7.668;2023-03-01T16:21:16;26.47;;;17.90;;
2388;SDS011;1205;47.984;7.668;2023-03-01T16:23:48;30.03;;;17.70;;
2388;SDS011;1205;47.984;7.668;2023-03-01T16:26:15;28.73;;;17.70;;
2388;SDS011;1205;47.984;7.668;2023-03-01T16:28:42;28.10;;;16.70;;
2388;SDS011;1205;47.984;7.668;2023-03-01T16:31:08;23.40;;;16.30;;
2388;SDS011;1205;47.984;7.668;2023-03-01T16:33:34;24.83;;;16.37;;
2388;SDS011;1205;47.984;7.668;2023-03-01T16:36:05;27.10;;;17.20;;
2388;SDS011;1205;47.984;7.668;2023-03-01T16:38:32;26.10;;;17.10;;
2388;SDS011;1205;47.984;7.668;2023-03-01T16:40:58;32.17;;;18.20;;
2388;SDS011;1205;47.984;7.668;2023-03-01T16:43:23;31.47;;;18.23;;
2388;SDS011;1205;47.984;7.668;2023-03-01T16:45:49;23.47;;;15.90;;
2388;SDS011;1205;47.984;7.668;2023-03-01T16:48:15;27.00;;;18.03;;
2388;SDS011;1205;47.984;7.668;2023-03-01T16:50:40;33.27;;;17.37;;
2388;SDS011;1205;47.984;7.668;2023-03-01T16:53:06;24.67;;;17.00;;
2388;SDS011;1205;47.984;7.668;2023-03-01T16:55:31;30.80;;;19.33;;
2388;SDS011;1205;47.984;7.668;2023-03-01T16:57:58;32.33;;;20.00;;
2388;SDS011;1205;47.984;7.668;2023-03-01T17:00:23;29.70;;;18.20;;
2388;SDS011;1205;47.984;7.668;2023-03-01T17:02:49;26.80;;;18.60;;
2388;SDS011;1205;47.984;7.668;2023-03-01T17:05:16;29.93;;;18.97;;
2388;SDS011;1205;47.984;7.668;2023-03-01T17:07:42;27.10;;;17.33;;